Time;durP1;ratioP1;P1;durP2;ratioP2;P2;SDS_P1;SDS_P2;PMS_P1;PMS_P2;Temp;Humidity;BMP_temperature;BMP_pressure;BME280_temperature;BME280_humidity;BME280_pressure;Samples;Min_cycle;Max_cycle;Signal;HPM_P1;HPM_P2
2022/05/25 00:00:33;;;;;;;3.40;2.30;;;;;;;15.59;100.00;95896.72;5048755;28;20205;-88
2022/05/25 00:03:00;;;;;;;6.00;2.30;;;;;;;15.50;100.00;95901.47;5050097;28;20206;-89
2022/05/25 00:05:26;;;;;;;2.78;2.28;;;;;;;15.54;100.00;95897.38;5049859;28;20201;-90
2022/05/25 00:07:53;;;;;;;7.93;2.20;;;;;;;15.51;100.00;95902.28;5050865;28;20212;-91
2022/05/25 00:10:20;;;;;;;5.38;2.30;;;;;;;15.52;100.00;95899.41;5049473;28;20205;-90
2022/05/25 00:12:47;;;;;;;6.93;2.42;;;;;;;15.64;100.00;95899.53;5050258;28;20290;-89
2022/05/25 00:15:14;;;;;;;3.90;2.53;;;;;;;15.42;100.00;95903.56;5050977;28;20202;-90
2022/05/25 00:17:41;;;;;;;3.95;2.17;;;;;;;15.38;100.00;95915.66;5052633;28;20216;-90
2022/05/25 00:20:10;;;;;;;5.40;2.63;;;;;;;15.46;100.00;95910.09;5053147;28;20661;-88
2022/05/25 00:22:41;;;;;;;4.35;2.70;;;;;;;15.56;100.00;95921.06;5049543;28;20236;-87
2022/05/25 00:25:09;;;;;;;4.60;3.00;;;;;;;15.40;100.00;95914.41;5050076;28;20209;-90
2022/05/25 00:27:36;;;;;;;6.38;3.13;;;;;;;15.39;100.00;95914.63;5047664;28;20215;-86
2022/05/25 00:30:04;;;;;;;4.10;2.90;;;;;;;15.28;100.00;95929.38;5048695;28;20666;-91
2022/05/25 00:32:31;;;;;;;6.78;3.25;;;;;;;15.11;100.00;95926.59;5047445;28;20768;-89
2022/05/25 00:34:57;;;;;;;4.18;2.92;;;;;;;15.13;100.00;95919.25;5049647;28;20220;-90
2022/05/25 00:37:24;;;;;;;4.93;3.25;;;;;;;15.34;100.00;95931.19;5047741;28;20205;-87
2022/05/25 00:39:50;;;;;;;4.50;2.72;;;;;;;15.29;100.00;95927.56;5047396;28;20205;-89
2022/05/25 00:42:17;;;;;;;6.22;3.25;;;;;;;15.36;100.00;95930.97;5046732;28;20233;-86
2022/05/25 00:44:43;;;;;;;5.28;3.17;;;;;;;15.31;100.00;95933.44;5046543;28;20201;-89
2022/05/25 00:47:15;;;;;;;5.95;3.15;;;;;;;15.45;100.00;95924.38;5046084;28;20209;-91
2022/05/25 00:49:42;;;;;;;7.72;3.55;;;;;;;15.35;100.00;95932.81;5045391;28;20629;-88
2022/05/25 00:52:11;;;;;;;4.18;2.78;;;;;;;15.36;100.00;95930.97;5045135;28;20229;-89
2022/05/25 00:54:41;;;;;;;5.22;3.05;;;;;;;15.33;100.00;95932.22;5045747;28;20201;-90
2022/05/25 00:57:13;;;;;;;4.43;3.15;;;;;;;15.39;100.00;95936.69;5045536;28;20757;-91
2022/05/25 00:59:48;;;;;;;5.20;3.33;;;;;;;15.50;100.00;95938.66;5045792;28;20205;-91
2022/05/25 01:02:16;;;;;;;8.30;3.10;;;;;;;15.43;100.00;95927.25;5044705;28;20224;-90
2022/05/25 01:04:42;;;;;;;6.22;2.90;;;;;;;15.28;100.00;95934.69;5044768;28;20480;-91
2022/05/25 01:07:22;;;;;;;4.97;2.97;;;;;;;15.67;100.00;95928.31;5045189;28;20205;-91
2022/05/25 01:10:02;;;;;;;4.15;2.80;;;;;;;15.72;100.00;95931.13;5045030;28;20209;-89
2022/05/25 01:12:44;;;;;;;4.63;3.25;;;;;;;15.68;100.00;95933.44;5044858;28;20488;-87
2022/05/25 01:15:18;;;;;;;5.43;3.67;;;;;;;15.66;100.00;95926.72;5045241;28;20654;-91
2022/05/25 01:18:08;;;;;;;5.60;3.28;;;;;;;15.67;100.00;95928.31;5044135;28;20208;-91
2022/05/25 01:20:42;;;;;;;7.78;3.75;;;;;;;15.48;100.00;95939.91;5045518;28;20232;-86
2022/05/25 01:23:35;;;;;;;5.05;3.45;;;;;;;15.55;100.00;95944.13;5045235;28;20221;-91
2022/05/25 01:26:31;;;;;;;7.70;3.67;;;;;;;15.58;100.00;95958.81;5045188;28;20213;-88
2022/05/25 01:29:09;;;;;;;6.82;3.53;;;;;;;15.41;100.00;95965.66;5019665;28;20567;-90
2022/05/25 01:31:45;;;;;;;6.70;4.10;;;;;;;15.46;100.00;95969.31;5046768;28;20217;-90
2022/05/25 01:34:18;;;;;;;7.22;3.53;;;;;;;15.58;100.00;95967.63;5044726;28;20197;-88
2022/05/25 01:36:54;;;;;;;7.28;3.80;;;;;;;15.45;100.00;95969.53;5045407;28;20205;-92
2022/05/25 01:39:26;;;;;;;6.07;3.92;;;;;;;15.45;100.00;95966.88;5045250;28;20317;-90
2022/05/25 01:42:00;;;;;;;9.52;4.20;;;;;;;15.47;100.00;95964.81;5045191;28;20224;-90
2022/05/25 01:44:31;;;;;;;7.35;3.60;;;;;;;15.38;100.00;95963.44;5045255;28;20201;-87
2022/05/25 01:47:04;;;;;;;8.30;4.10;;;;;;;15.38;100.00;95963.44;5044652;28;20252;-90
2022/05/25 01:49:35;;;;;;;8.20;4.00;;;;;;;15.26;100.00;95968.63;5043680;28;20232;-90
2022/05/25 01:52:06;;;;;;;7.93;3.88;;;;;;;15.22;100.00;95966.56;5043646;28;20615;-89
2022/05/25 01:54:35;;;;;;;8.18;4.32;;;;;;;15.20;100.00;95971.28;5043388;28;20206;-87
2022/05/25 01:57:06;;;;;;;8.75;4.60;;;;;;;15.32;100.00;95970.44;5044099;28;20202;-87
2022/05/25 01:59:32;;;;;;;8.85;4.10;;;;;;;15.20;100.00;95968.63;5043368;28;20209;-90
2022/05/25 02:05:01;;;;;;;9.55;4.28;;;;;;;15.22;100.00;95966.56;5001109;28;20211;-89
2022/05/25 02:07:39;;;;;;;7.55;4.40;;;;;;;15.29;100.00;95967.38;5034041;28;20635;-88
2022/05/25 02:10:22;;;;;;;7.75;4.45;;;;;;;15.32;100.00;95962.47;5044349;28;20207;-90
2022/05/25 02:13:04;;;;;;;4.97;3.35;;;;;;;15.12;100.00;95971.53;5042916;28;20386;-90
2022/05/25 02:15:41;;;;;;;6.45;2.70;;;;;;;14.88;100.00;95966.06;5042837;28;20197;-88
2022/05/25 02:18:13;;;;;;;5.47;2.83;;;;;;;14.94;100.00;95970.56;5043225;28;20205;-88
2022/05/25 02:20:46;;;;;;;3.83;2.50;;;;;;;14.89;100.00;95968.53;5042934;28;20221;-89
2022/05/25 02:23:20;;;;;;;3.42;2.30;;;;;;;14.95;100.00;95974.84;5042494;28;20279;-87
2022/05/25 02:25:51;;;;;;;6.28;2.10;;;;;;;14.79;100.00;95977.94;5043436;28;20227;-88
2022/05/25 02:28:24;;;;;;;3.45;2.35;;;;;;;14.56;100.00;95979.44;5042492;28;20220;-88
2022/05/25 02:30:54;;;;;;;3.42;2.20;;;;;;;14.46;100.00;95982.53;5043068;28;20228;-88
2022/05/25 02:33:28;;;;;;;1.65;1.55;;;;;;;14.38;100.00;95974.78;5043095;28;20215;-87
2022/05/25 02:35:57;;;;;;;8.43;1.80;;;;;;;14.24;100.00;95985.59;5042153;28;20205;-88
2022/05/25 02:38:24;;;;;;;2.00;1.55;;;;;;;14.15;100.00;95992.13;5042499;28;20209;-89
2022/05/25 02:40:51;;;;;;;2.67;1.90;;;;;;;14.21;100.00;95996.63;5043046;28;20304;-87
2022/05/25 02:43:17;;;;;;;2.65;1.98;;;;;;;14.26;100.00;95991.53;5042549;28;20227;-89
2022/05/25 02:45:45;;;;;;;4.00;2.15;;;;;;;14.35;100.00;95998.25;5042761;28;20205;-89
2022/05/25 02:48:11;;;;;;;2.95;2.00;;;;;;;14.44;100.00;95989.06;5042679;28;20266;-90
2022/05/25 02:50:39;;;;;;;2.78;1.88;;;;;;;14.64;100.00;96002.06;5042959;28;20228;-89
2022/05/25 02:53:06;;;;;;;2.10;1.60;;;;;;;14.67;100.00;96009.59;5042685;28;20197;-89
2022/05/25 02:55:32;;;;;;;2.50;1.70;;;;;;;14.61;100.00;96014.13;5042803;28;20193;-89
2022/05/25 02:57:59;;;;;;;3.40;1.85;;;;;;;14.63;100.00;96014.75;5042868;28;20394;-90
2022/05/25 03:00:26;;;;;;;5.50;1.80;;;;;;;14.64;100.00;96017.97;5042674;28;20220;-89
2022/05/25 03:02:54;;;;;;;2.13;1.60;;;;;;;14.58;100.00;96011.88;5042324;28;20251;-90
2022/05/25 03:05:20;;;;;;;4.47;1.75;;;;;;;14.45;100.00;96017.22;5042589;28;20205;-89
2022/05/25 03:07:48;;;;;;;4.30;2.05;;;;;;;14.66;100.00;96021.25;5042602;28;20201;-88
2022/05/25 03:10:15;;;;;;;2.25;1.65;;;;;;;14.56;100.00;96029.81;5042518;28;20201;-89
2022/05/25 03:12:42;;;;;;;3.33;1.60;;;;;;;14.64;100.00;96031.25;5041994;28;20672;-90
2022/05/25 03:15:09;;;;;;;3.45;1.60;;;;;;;14.70;100.00;96025.13;5041889;28;20211;-90
2022/05/25 03:17:35;;;;;;;2.33;1.77;;;;;;;14.57;100.00;96042.06;5042714;28;20209;-90
2022/05/25 03:20:02;;;;;;;3.75;1.73;;;;;;;14.63;100.00;96034.91;5042789;28;20220;-90
2022/05/25 03:22:28;;;;;;;5.40;1.67;;;;;;;14.56;100.00;96030.66;5041921;28;20756;-90
2022/05/25 03:24:56;;;;;;;2.75;1.75;;;;;;;14.78;100.00;96030.19;5042767;28;20201;-91
2022/05/25 03:27:23;;;;;;;3.63;1.48;;;;;;;14.58;100.00;96035.75;5042032;28;20216;-90
2022/05/25 03:29:50;;;;;;;2.70;1.65;;;;;;;14.56;100.00;96035.97;5042260;28;20232;-90
2022/05/25 03:32:16;;;;;;;4.32;1.65;;;;;;;14.52;100.00;96036.56;5042195;28;20389;-89
2022/05/25 03:34:43;;;;;;;2.95;1.80;;;;;;;14.43;100.00;96045.75;5042288;28;20216;-90
2022/05/25 03:37:09;;;;;;;2.33;1.60;;;;;;;14.41;100.00;96043.31;5041547;28;20670;-90
2022/05/25 03:39:36;;;;;;;3.72;1.83;;;;;;;14.44;100.00;96045.53;5042334;28;20217;-89
2022/05/25 03:42:07;;;;;;;2.60;1.88;;;;;;;14.63;100.00;96045.50;5046065;28;20324;-89
2022/05/25 03:44:34;;;;;;;5.07;1.90;;;;;;;14.53;100.00;96054.09;5046237;28;20228;-89
2022/05/25 03:47:00;;;;;;;3.38;1.70;;;;;;;14.53;100.00;96054.91;5046346;28;20227;-89
2022/05/25 03:49:27;;;;;;;4.70;1.75;;;;;;;14.53;100.00;96054.09;5045924;28;20201;-89
2022/05/25 03:51:54;;;;;;;3.30;1.70;;;;;;;14.67;100.00;96064.50;5046126;28;20221;-89
2022/05/25 03:54:20;;;;;;;3.72;1.80;;;;;;;14.61;100.00;96061.84;5046607;28;20208;-90
2022/05/25 03:56:47;;;;;;;3.80;1.90;;;;;;;14.59;100.00;96061.22;5045998;28;20314;-89
2022/05/25 03:59:15;;;;;;;4.40;2.10;;;;;;;14.63;100.00;96065.94;5046092;28;20205;-90
2022/05/25 04:01:41;;;;;;;3.92;1.85;;;;;;;14.45;100.00;96063.09;5045860;28;20316;-90
2022/05/25 04:04:08;;;;;;;5.78;2.00;;;;;;;14.58;100.00;96065.72;5045509;28;20212;-90
2022/05/25 04:06:35;;;;;;;3.63;2.10;;;;;;;14.51;100.00;96072.03;5045787;28;20197;-90
2022/05/25 04:09:02;;;;;;;4.53;2.22;;;;;;;14.57;100.00;96076.53;5046462;28;20205;-89
2022/05/25 04:11:29;;;;;;;6.28;2.03;;;;;;;14.64;100.00;96080.81;5045486;28;20213;-90
2022/05/25 04:13:56;;;;;;;7.60;2.35;;;;;;;14.63;100.00;96086.34;5045713;28;20291;-90
2022/05/25 04:16:23;;;;;;;5.40;2.15;;;;;;;14.53;100.00;96089.38;5046309;28;20491;-90
2022/05/25 04:18:50;;;;;;;6.88;2.30;;;;;;;14.43;100.00;96094.28;5045857;28;20654;-90
2022/05/25 04:21:17;;;;;;;3.65;1.92;;;;;;;14.45;100.00;96107.34;5045326;28;20221;-90
2022/05/25 04:23:43;;;;;;;4.32;2.50;;;;;;;14.46;100.00;96107.16;5044831;28;20664;-88
2022/05/25 04:26:10;;;;;;;5.18;2.20;;;;;;;14.52;100.00;96116.91;5045902;28;20255;-90
2022/05/25 04:28:37;;;;;;;3.85;2.10;;;;;;;14.45;100.00;96117.97;5045471;28;20209;-89
2022/05/25 04:31:03;;;;;;;4.85;2.20;;;;;;;14.50;100.00;96118.13;5045381;28;20494;-89
2022/05/25 04:33:31;;;;;;;7.50;2.58;;;;;;;14.62;100.00;96119.19;5045110;28;20204;-88
2022/05/25 04:35:58;;;;;;;4.85;2.42;;;;;;;14.59;100.00;96128.34;5044562;28;20216;-89
2022/05/25 04:38:25;;;;;;;4.25;2.40;;;;;;;14.60;100.00;96126.50;5045533;28;20509;-87
2022/05/25 04:40:52;;;;;;;6.93;2.10;;;;;;;14.67;100.00;96136.09;5045312;28;20221;-89
2022/05/25 04:43:20;;;;;;;5.32;2.17;;;;;;;14.44;100.00;96145.47;5044986;28;20233;-89
2022/05/25 04:45:48;;;;;;;5.50;1.88;;;;;;;14.65;100.00;96149.56;5044441;28;20202;-88
2022/05/25 04:48:17;;;;;;;1.95;1.75;;;;;;;14.63;100.00;96155.28;5045207;28;20215;-89
2022/05/25 04:50:46;;;;;;;4.78;2.03;;;;;;;14.80;100.00;96152.84;5044961;28;20217;-89
2022/05/25 04:53:14;;;;;;;5.45;2.15;;;;;;;14.61;100.00;96152.00;5045067;28;20204;-90
2022/05/25 04:58:26;;;;;;;4.10;1.90;;;;;;;14.61;100.00;96147.50;5044809;28;20579;-90
2022/05/25 05:00:53;;;;;;;2.60;1.92;;;;;;;14.55;100.00;96152.81;5045115;28;20225;-90
2022/05/25 05:03:21;;;;;;;5.68;2.20;;;;;;;14.54;100.00;96156.50;5044833;28;20225;-89
2022/05/25 05:05:49;;;;;;;6.00;2.35;;;;;;;14.65;100.00;96159.38;5045080;28;20197;-90
2022/05/25 05:08:16;;;;;;;6.35;2.78;;;;;;;14.58;100.00;96153.22;5045420;28;20209;-90
2022/05/25 05:10:43;;;;;;;4.07;2.50;;;;;;;14.55;100.00;96148.34;5044944;28;20227;-89
2022/05/25 05:13:09;;;;;;;6.97;2.40;;;;;;;14.67;100.00;96155.47;5044827;28;20205;-89
2022/05/25 05:15:38;;;;;;;4.07;2.20;;;;;;;14.52;100.00;96153.22;5044949;28;20212;-88
2022/05/25 05:18:05;;;;;;;7.18;2.58;;;;;;;14.61;100.00;96162.63;5044859;28;20220;-88
2022/05/25 05:20:32;;;;;;;6.38;2.40;;;;;;;14.69;100.00;96177.31;5044226;28;20228;-89
2022/05/25 05:23:00;;;;;;;6.50;2.28;;;;;;;14.82;100.00;96172.00;5043883;28;20327;-89
2022/05/25 05:25:27;;;;;;;3.15;1.98;;;;;;;14.79;100.00;96185.69;5044554;28;20453;-89
2022/05/25 05:27:54;;;;;;;3.53;2.20;;;;;;;14.79;100.00;96188.34;5044479;28;20217;-88
2022/05/25 05:30:22;;;;;;;4.43;2.13;;;;;;;14.79;100.00;96183.03;5044244;28;20580;-88
2022/05/25 05:32:49;;;;;;;2.53;1.77;;;;;;;14.82;100.00;96187.94;5044269;28;20209;-88
2022/05/25 05:35:16;;;;;;;6.80;2.58;;;;;;;14.74;100.00;96190.78;5044284;28;20213;-88
2022/05/25 05:37:46;;;;;;;3.45;2.42;;;;;;;14.98;100.00;96190.19;5043437;28;20205;-88
2022/05/25 05:40:16;;;;;;;6.20;2.15;;;;;;;14.95;100.00;96200.38;5043858;28;20205;-88
2022/05/25 05:42:45;;;;;;;5.82;2.30;;;;;;;14.89;100.00;96202.03;5043155;28;20232;-88
2022/05/25 05:45:15;;;;;;;5.80;2.45;;;;;;;14.88;100.00;96197.72;5043604;28;20201;-88
2022/05/25 05:47:44;;;;;;;4.25;2.00;;;;;;;14.98;100.00;96205.28;5044114;28;20212;-88
2022/05/25 05:50:12;;;;;;;7.50;2.22;;;;;;;15.03;100.00;96211.63;5043677;28;20693;-87
2022/05/25 05:52:39;;;;;;;5.03;2.35;;;;;;;15.03;100.00;96206.31;5043458;28;20217;-88
2022/05/25 05:55:06;;;;;;;4.60;2.50;;;;;;;14.97;100.00;96207.13;5043484;28;20201;-89
2022/05/25 05:57:37;;;;;;;6.53;2.63;;;;;;;15.20;100.00;96196.91;5043787;28;20212;-88
2022/05/25 06:00:05;;;;;;;5.15;2.60;;;;;;;15.25;100.00;96213.06;5043281;28;20463;-88
2022/05/25 06:02:32;;;;;;;3.38;2.22;;;;;;;15.19;100.00;96216.50;5042705;28;20724;-87
2022/05/25 06:04:58;;;;;;;5.75;2.00;;;;;;;15.11;100.00;96216.72;5043672;28;20205;-86
2022/05/25 06:07:25;;;;;;;5.68;2.28;;;;;;;15.28;100.00;96209.97;5043619;28;20197;-87
2022/05/25 06:09:51;;;;;;;3.45;2.22;;;;;;;15.49;100.00;96217.69;5043429;28;20664;-87
2022/05/25 06:12:18;;;;;;;3.45;2.00;;;;;;;15.48;100.00;96210.78;5043491;28;20227;-87
2022/05/25 06:14:46;;;;;;;2.75;1.80;;;;;;;15.28;100.00;96223.25;5043579;28;20205;-87
2022/05/25 06:19:56;;;;;;;3.88;1.92;;;;;;;15.25;100.00;96223.69;5043530;28;20350;-88
2022/05/25 06:22:23;;;;;;;5.75;2.42;;;;;;;15.48;100.00;96218.75;5042465;28;20640;-88
2022/05/25 06:24:52;;;;;;;4.10;2.40;;;;;;;15.68;100.00;96227.47;5043289;28;20236;-88
2022/05/25 06:27:21;;;;;;;3.95;2.50;;;;;;;15.80;100.00;96237.25;5043250;28;20231;-86
2022/05/25 06:29:50;;;;;;;5.80;2.20;;;;;;;15.59;100.00;96244.66;5043072;28;20208;-86
2022/05/25 06:32:19;;;;;;;2.75;1.85;;;;;;;15.11;100.00;96258.34;5042876;28;20217;-86
2022/05/25 06:34:48;;;;;;;7.07;2.00;;;;;;;15.35;100.00;96256.75;5043329;28;20643;-87
2022/05/25 06:37:15;;;;;;;4.30;2.13;;;;;;;15.39;100.00;96262.47;5042107;28;20841;-88
2022/05/25 06:39:42;;;;;;;4.68;1.88;;;;;;;15.23;100.00;96265.53;5042667;28;20205;-87
2022/05/25 06:42:09;;;;;;;5.03;1.80;;;;;;;15.24;100.00;96270.63;5042311;28;20225;-87
2022/05/25 06:44:35;;;;;;;5.68;2.22;;;;;;;15.26;100.00;96262.47;5041569;28;20725;-87
2022/05/25 06:47:04;;;;;;;2.78;1.95;;;;;;;15.64;100.00;96250.16;5042971;28;20212;-87
2022/05/25 06:49:31;;;;;;;2.20;1.40;;;;;;;15.42;96.36;96270.03;5042665;28;20204;-87
2022/05/25 06:51:57;;;;;;;1.85;1.40;;;;;;;15.24;93.63;96273.28;5042217;28;20609;-87
2022/05/25 06:54:24;;;;;;;3.65;1.50;;;;;;;15.28;95.89;96279.81;5042700;28;20209;-87
2022/05/25 06:56:51;;;;;;;3.75;1.80;;;;;;;15.49;96.44;96278.78;5042484;28;20200;-87
2022/05/25 06:59:18;;;;;;;3.80;1.63;;;;;;;15.37;99.16;96281.25;5042656;28;20661;-86
2022/05/25 07:01:46;;;;;;;3.95;1.85;;;;;;;15.12;95.19;96284.72;5042116;28;20225;-86
2022/05/25 07:04:13;;;;;;;2.65;1.65;;;;;;;15.35;98.89;96282.47;5042374;28;20310;-86
2022/05/25 07:06:40;;;;;;;2.35;1.83;;;;;;;15.31;98.70;96305.16;5042580;28;20678;-86
2022/05/25 07:09:08;;;;;;;3.25;1.70;;;;;;;15.53;100.00;96309.22;5042004;28;20233;-87
2022/05/25 07:11:35;;;;;;;4.55;2.30;;;;;;;15.70;99.93;96307.78;5042240;28;20221;-86
2022/05/25 07:14:02;;;;;;;5.72;2.65;;;;;;;15.68;99.89;96304.50;5041898;28;20204;-86
2022/05/25 07:16:31;;;;;;;3.70;1.98;;;;;;;15.51;94.40;96311.28;5041832;28;20204;-85
2022/05/25 07:18:58;;;;;;;3.25;2.17;;;;;;;15.77;95.96;96305.94;5042031;28;20209;-87
2022/05/25 07:21:28;;;;;;;3.70;1.88;;;;;;;16.21;93.95;96304.19;5044034;28;20216;-87
2022/05/25 07:23:57;;;;;;;4.03;2.22;;;;;;;16.41;95.24;96300.47;5041892;28;20723;-87
2022/05/25 07:26:26;;;;;;;5.00;1.95;;;;;;;16.54;94.38;96305.72;5042071;28;20209;-88
2022/05/25 07:28:53;;;;;;;4.47;2.20;;;;;;;16.75;95.16;96300.09;5041789;28;20646;-88
2022/05/25 07:31:23;;;;;;;4.07;1.98;;;;;;;16.90;92.67;96297.97;5041712;28;20233;-88
2022/05/25 07:33:56;;;;;;;3.78;2.10;;;;;;;16.91;89.33;96307.56;5042123;28;20212;-88
2022/05/25 07:36:26;;;;;;;3.88;1.80;;;;;;;16.60;91.47;96311.00;5041978;28;20205;-88
2022/05/25 07:38:55;;;;;;;3.17;1.77;;;;;;;16.47;84.17;96315.59;5042410;28;20205;-88
2022/05/25 07:41:22;;;;;;;3.53;1.70;;;;;;;16.37;88.16;96317.88;5041869;28;20394;-89
2022/05/25 07:43:57;;;;;;;2.38;1.25;;;;;;;16.26;85.43;96321.19;5041905;28;20225;-87
2022/05/25 07:46:23;;;;;;;5.80;1.80;;;;;;;16.57;87.20;96321.25;5042489;28;20555;-88
2022/05/25 07:48:50;;;;;;;5.53;1.98;;;;;;;16.40;85.29;96324.63;5041625;28;20220;-87
2022/05/25 07:51:17;;;;;;;6.50;1.60;;;;;;;16.06;85.36;96328.38;5042243;28;20715;-88
2022/05/25 07:53:57;;;;;;;2.72;1.42;;;;;;;16.32;86.53;96332.81;5041981;28;20201;-89
2022/05/25 07:56:24;;;;;;;4.13;1.48;;;;;;;16.46;87.20;96329.06;5045573;28;20209;-88
2022/05/25 07:58:51;;;;;;;2.72;1.80;;;;;;;16.35;87.87;96337.72;5045568;28;20205;-88
2022/05/25 08:05:43;;;;;;;5.15;2.00;;;;;;;16.34;86.78;96336.91;5045298;28;20233;-88
2022/05/25 08:06:52;;;;;;;6.10;1.70;;;;;;;16.17;88.60;96346.31;5045437;28;20232;-88
2022/05/25 08:09:19;;;;;;;4.25;2.28;;;;;;;16.28;88.81;96339.56;5046203;28;20217;-87
2022/05/25 08:11:46;;;;;;;5.75;1.95;;;;;;;16.15;88.13;96337.75;5043013;28;20225;-87
2022/05/25 08:14:13;;;;;;;3.90;2.33;;;;;;;16.02;87.76;96336.97;5043428;28;20665;-86
2022/05/25 08:16:39;;;;;;;6.25;2.50;;;;;;;16.04;88.19;96340.25;5043600;28;20206;-88
2022/05/25 08:19:06;;;;;;;5.78;2.33;;;;;;;16.07;89.32;96340.63;5043618;28;20205;-88
2022/05/25 08:21:32;;;;;;;4.22;2.28;;;;;;;16.19;88.86;96332.81;5045242;28;20221;-88
2022/05/25 08:23:59;;;;;;;3.92;2.28;;;;;;;16.65;89.80;96339.66;5042157;28;20233;-88
2022/05/25 08:26:27;;;;;;;4.35;2.03;;;;;;;16.47;84.84;96336.88;5046212;28;20212;-87
2022/05/25 08:28:53;;;;;;;4.55;2.10;;;;;;;16.31;88.30;96347.97;5047267;28;20205;-89
2022/05/25 08:31:20;;;;;;;5.13;2.08;;;;;;;16.38;88.51;96343.47;5048203;28;20235;-88
2022/05/25 08:33:46;;;;;;;3.05;2.10;;;;;;;16.51;89.00;96344.22;5047751;28;20646;-88
2022/05/25 08:36:13;;;;;;;4.10;1.77;;;;;;;16.63;90.04;96347.84;5047295;28;20209;-87
2022/05/25 08:38:40;;;;;;;4.20;2.40;;;;;;;16.51;88.52;96343.41;5049968;28;20224;-89
2022/05/25 08:41:07;;;;;;;3.95;2.00;;;;;;;16.59;87.08;96356.47;5049714;28;20217;-88
2022/05/25 08:43:43;;;;;;;3.30;2.25;;;;;;;16.88;87.78;96355.91;5051678;28;20233;-88
2022/05/25 08:46:14;;;;;;;4.00;1.98;;;;;;;16.94;84.42;96353.22;5051747;28;20869;-88
2022/05/25 08:48:42;;;;;;;6.30;2.30;;;;;;;16.80;83.65;96354.31;5052111;28;20205;-86
2022/05/25 08:51:12;;;;;;;3.30;2.05;;;;;;;16.87;84.61;96354.28;5052610;28;20221;-87
2022/05/25 08:53:39;;;;;;;4.20;2.40;;;;;;;16.66;83.94;96358.06;5052119;28;20197;-88
2022/05/25 08:56:18;;;;;;;4.03;2.08;;;;;;;16.82;84.07;96348.78;5051938;28;20208;-88
2022/05/25 08:58:48;;;;;;;6.13;2.05;;;;;;;16.84;83.17;96352.03;5048989;28;20197;-88
2022/05/25 09:01:23;;;;;;;3.00;1.77;;;;;;;17.15;79.57;96347.56;5052151;28;20263;-88
2022/05/25 09:03:58;;;;;;;2.22;1.73;;;;;;;16.94;75.79;96349.72;5052617;28;20973;-88
2022/05/25 09:06:34;;;;;;;2.03;1.45;;;;;;;17.28;74.82;96350.16;5048649;28;20200;-88
2022/05/25 09:09:06;;;;;;;1.98;1.48;;;;;;;17.41;80.53;96352.75;5052689;28;20662;-88
2022/05/25 09:11:40;;;;;;;4.25;1.80;;;;;;;17.85;82.69;96350.75;5053886;28;20256;-87
2022/05/25 09:14:15;;;;;;;5.03;1.60;;;;;;;17.73;77.44;96347.97;5053341;28;20216;-87
2022/05/25 09:16:46;;;;;;;2.92;1.58;;;;;;;17.95;80.90;96343.06;5051571;28;20213;-89
2022/05/25 09:19:18;;;;;;;2.33;1.45;;;;;;;17.71;77.19;96354.56;5051853;28;20537;-87
2022/05/25 09:21:51;;;;;;;3.03;1.20;;;;;;;17.38;74.32;96347.84;5052149;28;20706;-89
2022/05/25 09:24:20;;;;;;;1.23;1.00;;;;;;;17.56;72.65;96351.38;5051691;28;20217;-87
2022/05/25 09:26:47;;;;;;;2.35;1.40;;;;;;;17.18;69.08;96350.63;5050587;28;20631;-88
2022/05/25 09:29:17;;;;;;;2.03;1.45;;;;;;;17.66;72.75;96357.06;5052455;28;20539;-88
2022/05/25 09:31:46;;;;;;;2.78;1.52;;;;;;;17.65;79.81;96360.75;5052858;28;20225;-89
2022/05/25 09:34:19;;;;;;;2.08;1.33;;;;;;;17.46;76.61;96355.56;5052158;28;20194;-89
2022/05/25 09:36:51;;;;;;;2.67;1.30;;;;;;;17.76;77.22;96352.06;5050950;28;20206;-89
2022/05/25 09:39:26;;;;;;;6.45;1.70;;;;;;;18.02;76.41;96357.16;5050613;28;20201;-88
2022/05/25 09:41:56;;;;;;;5.80;1.50;;;;;;;18.18;72.82;96360.09;5053019;28;20217;-88
2022/05/25 09:44:25;;;;;;;2.03;1.20;;;;;;;18.04;73.62;96371.09;5051941;28;20213;-88
2022/05/25 09:46:55;;;;;;;2.72;1.52;;;;;;;18.14;74.07;96366.03;5051180;28;20220;-90
2022/05/25 09:49:39;;;;;;;2.55;1.42;;;;;;;18.61;75.66;96368.84;5051144;28;20292;-90
2022/05/25 09:52:12;;;;;;;4.10;1.40;;;;;;;18.64;72.79;96361.22;5050675;28;20233;-87
2022/05/25 09:54:45;;;;;;;1.77;1.58;;;;;;;18.45;68.21;96369.44;5050105;28;20193;-89
2022/05/25 09:57:18;;;;;;;2.63;1.27;;;;;;;18.26;74.14;96364.34;5049538;28;20678;-89
2022/05/25 09:59:55;;;;;;;2.70;1.40;;;;;;;18.89;70.41;96361.13;5047902;28;20279;-90
2022/05/25 10:02:25;;;;;;;2.67;1.55;;;;;;;19.12;71.71;96362.09;5046546;28;20225;-90
2022/05/25 10:04:54;;;;;;;1.58;1.20;;;;;;;19.22;70.02;96354.31;5047665;28;20584;-90
2022/05/25 10:07:26;;;;;;;5.00;1.00;;;;;;;19.30;68.87;96356.69;5048874;28;20724;-89
2022/05/25 10:09:53;;;;;;;3.53;1.10;;;;;;;18.95;63.39;96361.84;5048947;28;20220;-89
2022/05/25 10:12:29;;;;;;;4.72;1.20;;;;;;;19.58;65.51;96363.03;5047908;28;20225;-88
2022/05/25 10:15:00;;;;;;;2.15;1.50;;;;;;;19.84;63.55;96363.41;5047848;28;20207;-90
2022/05/25 10:17:35;;;;;;;1.52;1.02;;;;;;;19.66;63.20;96366.16;5048449;28;20201;-90
2022/05/25 10:20:06;;;;;;;2.30;1.30;;;;;;;19.92;65.53;96371.16;5046365;28;20624;-89
2022/05/25 10:22:37;;;;;;;1.88;1.25;;;;;;;19.95;65.27;96365.31;5045908;28;20232;-89
2022/05/25 10:25:07;;;;;;;2.33;1.27;;;;;;;20.04;66.77;96363.94;5046646;28;20231;-89
2022/05/25 10:27:38;;;;;;;5.63;1.33;;;;;;;20.09;65.65;96353.34;5048360;28;20213;-89
2022/05/25 10:38:41;;;;;;;5.93;1.45;;;;;;;20.54;64.56;96355.16;5046350;28;20739;-89
2022/05/25 10:44:06;;;;;;;1.80;0.80;;;;;;;20.43;56.84;96357.84;5049422;28;20201;-88
2022/05/25 10:46:34;;;;;;;1.73;0.85;;;;;;;20.43;58.38;96355.19;5052942;28;20200;-89
2022/05/25 10:49:09;;;;;;;2.95;1.13;;;;;;;20.28;61.53;96355.66;5049903;28;20201;-90
2022/05/25 10:51:43;;;;;;;3.38;1.52;;;;;;;20.40;64.16;96351.13;5049139;28;20221;-89
2022/05/25 10:57:27;;;;;;;3.67;1.20;;;;;;;20.70;59.69;96341.06;5049258;28;20203;-89
2022/05/25 11:00:03;;;;;;;1.38;1.13;;;;;;;20.83;58.34;96349.66;5048068;28;20213;-88
2022/05/25 11:02:48;;;;;;;5.40;1.60;;;;;;;20.90;63.49;96352.19;5048851;28;20311;-89
2022/05/25 11:05:26;;;;;;;3.83;1.25;;;;;;;21.20;57.36;96340.22;5047306;28;20679;-89
2022/05/25 11:07:59;;;;;;;1.65;0.90;;;;;;;20.58;60.24;96351.00;5047415;28;20208;-90
2022/05/25 11:10:38;;;;;;;2.22;1.10;;;;;;;21.38;55.37;96348.06;5048376;28;20205;-90
2022/05/25 11:13:29;;;;;;;5.82;1.52;;;;;;;22.03;56.10;96352.69;5048134;28;20205;-88
2022/05/25 11:16:04;;;;;;;1.65;0.98;;;;;;;22.15;57.01;96351.53;5047778;28;20193;-89
2022/05/25 11:18:47;;;;;;;3.03;1.30;;;;;;;21.81;56.32;96359.84;5047315;28;20201;-88
2022/05/25 11:21:26;;;;;;;1.27;1.00;;;;;;;22.17;53.68;96368.22;5046730;28;20225;-89
2022/05/25 11:24:13;;;;;;;3.72;1.00;;;;;;;22.39;55.71;96362.94;5046737;28;20288;-89
2022/05/25 11:26:58;;;;;;;1.67;1.08;;;;;;;22.45;53.93;96367.31;5047603;28;20276;-88
2022/05/25 11:29:40;;;;;;;1.92;1.00;;;;;;;22.37;56.96;96357.00;5046929;28;20205;-89
2022/05/25 11:32:16;;;;;;;2.47;1.27;;;;;;;22.60;57.99;96365.66;5045842;28;20225;-87
2022/05/25 11:35:01;;;;;;;2.17;0.77;;;;;;;22.19;53.49;96371.47;5047264;28;20251;-89
2022/05/25 11:37:40;;;;;;;2.22;1.00;;;;;;;22.85;52.96;96363.31;5044932;28;20200;-86
2022/05/25 11:40:19;;;;;;;4.55;1.13;;;;;;;22.71;50.12;96367.44;5048170;28;20189;-87
2022/05/25 11:43:05;;;;;;;3.13;1.20;;;;;;;23.12;52.38;96362.31;5049798;28;20998;-88
2022/05/25 11:45:43;;;;;;;1.38;0.70;;;;;;;21.73;53.73;96370.19;5050360;28;20209;-86
2022/05/25 11:48:22;;;;;;;2.80;0.90;;;;;;;23.05;52.67;96360.88;5045707;28;20201;-88
2022/05/25 11:51:00;;;;;;;2.60;1.10;;;;;;;22.25;51.49;96362.44;5047695;28;20216;-89
2022/05/25 11:53:58;;;;;;;1.75;1.00;;;;;;;22.10;50.80;96364.88;5047582;28;20209;-87
2022/05/25 11:56:43;;;;;;;1.63;1.10;;;;;;;23.04;51.42;96356.56;5045584;28;20208;-88
2022/05/25 11:59:21;;;;;;;1.90;1.00;;;;;;;23.21;48.29;96351.94;5047329;28;20201;-89
2022/05/25 12:01:57;;;;;;;1.75;1.30;;;;;;;22.94;55.61;96359.13;5049542;28;20228;-89
2022/05/25 12:04:40;;;;;;;3.60;1.50;;;;;;;22.70;49.08;96365.78;5051700;28;20197;-90
2022/05/25 12:07:33;;;;;;;1.45;1.08;;;;;;;22.64;49.07;96358.72;5053189;28;20904;-88
2022/05/25 12:10:25;;;;;;;1.08;0.80;;;;;;;22.29;52.59;96360.13;5049771;28;20197;-87